sensor_id;sensor_type;location;lat;lon;timestamp;pressure;altitude;pressure_sealevel;temperature;humidity
14882;BME280;7533;51.278;12.588;2023-11-25T00:03:39;98575.13;;;24.24;54.38
14882;BME280;7533;51.278;12.588;2023-11-25T00:08:42;98595.88;;;24.24;54.33
14882;BME280;7533;51.278;12.588;2023-11-25T00:13:47;98594.06;;;24.24;54.35
14882;BME280;7533;51.278;12.588;2023-11-25T00:18:50;98605.00;;;24.23;54.58
14882;BME280;7533;51.278;12.588;2023-11-25T00:23:53;98627.34;;;24.25;54.48
14882;BME280;7533;51.278;12.588;2023-11-25T00:28:57;98632.56;;;24.26;54.62
14882;BME280;7533;51.278;12.588;2023-11-25T00:34:00;98654.38;;;24.25;54.67
14882;BME280;7533;51.278;12.588;2023-11-25T00:39:04;98670.59;;;24.25;54.54
14882;BME280;7533;51.278;12.588;2023-11-25T00:44:09;98677.53;;;24.27;54.40
14882;BME280;7533;51.278;12.588;2023-11-25T00:49:13;98698.97;;;24.29;54.42
14882;BME280;7533;51.278;12.588;2023-11-25T00:54:17;98721.63;;;24.28;54.42
14882;BME280;7533;51.278;12.588;2023-11-25T00:59:21;98727.75;;;24.30;54.48
14882;BME280;7533;51.278;12.588;2023-11-25T01:04:24;98743.09;;;24.29;54.36
14882;BME280;7533;51.278;12.588;2023-11-25T01:09:27;98761.50;;;24.26;54.55
14882;BME280;7533;51.278;12.588;2023-11-25T01:14:33;98769.41;;;24.19;54.39
14882;BME280;7533;51.278;12.588;2023-11-25T01:19:37;98776.63;;;24.11;54.82
14882;BME280;7533;51.278;12.588;2023-11-25T01:24:40;98783.97;;;24.00;55.06
14882;BME280;7533;51.278;12.588;2023-11-25T01:29:45;98783.78;;;23.94;55.24
14882;BME280;7533;51.278;12.588;2023-11-25T01:34:48;98789.13;;;23.86;55.33
14882;BME280;7533;51.278;12.588;2023-11-25T01:39:52;98803.28;;;23.80;55.39
14882;BME280;7533;51.278;12.588;2023-11-25T01:44:57;98803.75;;;23.75;55.55
14882;BME280;7533;51.278;12.588;2023-11-25T01:50:00;98815.84;;;23.71;55.60
14882;BME280;7533;51.278;12.588;2023-11-25T01:55:05;98820.88;;;23.66;55.79
14882;BME280;7533;51.278;12.588;2023-11-25T02:00:14;98824.19;;;23.60;55.98
14882;BME280;7533;51.278;12.588;2023-11-25T02:05:17;98831.03;;;23.54;56.08
14882;BME280;7533;51.278;12.588;2023-11-25T02:10:20;98827.97;;;23.49;56.03
14882;BME280;7533;51.278;12.588;2023-11-25T02:15:25;98819.16;;;23.47;56.33
14882;BME280;7533;51.278;12.588;2023-11-25T02:20:31;98836.00;;;23.41;56.36
14882;BME280;7533;51.278;12.588;2023-11-25T02:25:38;98836.28;;;23.38;56.39
14882;BME280;7533;51.278;12.588;2023-11-25T02:30:41;98857.19;;;23.36;56.65
14882;BME280;7533;51.278;12.588;2023-11-25T02:35:45;98862.38;;;23.29;56.77
14882;BME280;7533;51.278;12.588;2023-11-25T02:40:51;98869.06;;;23.25;56.91
14882;BME280;7533;51.278;12.588;2023-11-25T02:45:55;98878.28;;;23.22;56.90
14882;BME280;7533;51.278;12.588;2023-11-25T02:50:59;98883.84;;;23.21;56.97
14882;BME280;7533;51.278;12.588;2023-11-25T02:56:04;98881.59;;;23.16;57.22
14882;BME280;7533;51.278;12.588;2023-11-25T03:01:08;98883.16;;;23.19;57.12
14882;BME280;7533;51.278;12.588;2023-11-25T03:06:14;98893.41;;;23.15;57.07
14882;BME280;7533;51.278;12.588;2023-11-25T03:11:19;98905.22;;;23.14;57.09
14882;BME280;7533;51.278;12.588;2023-11-25T03:16:23;98926.97;;;23.13;57.00
14882;BME280;7533;51.278;12.588;2023-11-25T03:21:27;98938.88;;;23.10;57.00
14882;BME280;7533;51.278;12.588;2023-11-25T03:26:32;98942.75;;;23.08;57.10
14882;BME280;7533;51.278;12.588;2023-11-25T03:31:40;98934.09;;;23.04;57.14
14882;BME280;7533;51.278;12.588;2023-11-25T03:36:44;98938.63;;;23.04;57.13
14882;BME280;7533;51.278;12.588;2023-11-25T03:41:48;98948.75;;;23.02;57.13
14882;BME280;7533;51.278;12.588;2023-11-25T03:46:51;98951.03;;;22.96;57.14
14882;BME280;7533;51.278;12.588;2023-11-25T03:51:56;98958.56;;;22.93;57.10
14882;BME280;7533;51.278;12.588;2023-11-25T03:57:00;98972.38;;;22.90;57.25
14882;BME280;7533;51.278;12.588;2023-11-25T04:02:03;98977.03;;;22.88;57.29
14882;BME280;7533;51.278;12.588;2023-11-25T04:07:07;98975.59;;;22.84;57.34
14882;BME280;7533;51.278;12.588;2023-11-25T04:12:11;98988.38;;;22.82;57.37
14882;BME280;7533;51.278;12.588;2023-11-25T04:17:14;98990.38;;;22.80;57.49
14882;BME280;7533;51.278;12.588;2023-11-25T04:22:17;98995.38;;;22.75;57.58
14882;BME280;7533;51.278;12.588;2023-11-25T04:27:21;98996.38;;;22.74;57.54
14882;BME280;7533;51.278;12.588;2023-11-25T04:32:27;99006.31;;;22.73;57.70
14882;BME280;7533;51.278;12.588;2023-11-25T04:37:31;99005.75;;;22.69;57.81
14882;BME280;7533;51.278;12.588;2023-11-25T04:42:36;99014.00;;;22.68;57.75
14882;BME280;7533;51.278;12.588;2023-11-25T04:47:38;99014.09;;;22.66;57.93
14882;BME280;7533;51.278;12.588;2023-11-25T04:52:42;99012.56;;;22.64;57.97
14882;BME280;7533;51.278;12.588;2023-11-25T04:57:46;99014.69;;;22.60;58.07
14882;BME280;7533;51.278;12.588;2023-11-25T05:02:49;99014.00;;;22.58;58.00
14882;BME280;7533;51.278;12.588;2023-11-25T05:07:52;99019.66;;;22.55;58.09
14882;BME280;7533;51.278;12.588;2023-11-25T05:12:57;99011.56;;;22.55;57.98
14882;BME280;7533;51.278;12.588;2023-11-25T05:18:00;99012.72;;;22.53;58.08
14882;BME280;7533;51.278;12.588;2023-11-25T05:23:02;99024.78;;;22.49;58.19
14882;BME280;7533;51.278;12.588;2023-11-25T05:28:09;99032.03;;;22.48;58.25
14882;BME280;7533;51.278;12.588;2023-11-25T05:33:12;99035.03;;;22.45;58.26
14882;BME280;7533;51.278;12.588;2023-11-25T05:38:15;99034.31;;;22.43;58.21
14882;BME280;7533;51.278;12.588;2023-11-25T05:43:22;99042.38;;;22.43;58.29
14882;BME280;7533;51.278;12.588;2023-11-25T05:48:26;99047.22;;;22.39;58.47
14882;BME280;7533;51.278;12.588;2023-11-25T05:53:29;99059.84;;;22.39;58.53
14882;BME280;7533;51.278;12.588;2023-11-25T05:58:33;99059.97;;;22.37;58.73
14882;BME280;7533;51.278;12.588;2023-11-25T06:03:36;99060.13;;;22.36;58.46
14882;BME280;7533;51.278;12.588;2023-11-25T06:08:43;99073.75;;;22.34;58.58
14882;BME280;7533;51.278;12.588;2023-11-25T06:13:48;99075.59;;;22.34;58.71
14882;BME280;7533;51.278;12.588;2023-11-25T06:18:51;99078.56;;;22.31;58.61
14882;BME280;7533;51.278;12.588;2023-11-25T06:23:56;99094.03;;;22.29;58.79
14882;BME280;7533;51.278;12.588;2023-11-25T06:29:00;99096.75;;;22.29;58.88
14882;BME280;7533;51.278;12.588;2023-11-25T06:34:04;99083.38;;;22.27;59.04
14882;BME280;7533;51.278;12.588;2023-11-25T06:39:07;99077.28;;;22.25;58.99
14882;BME280;7533;51.278;12.588;2023-11-25T06:44:14;99074.75;;;22.24;59.09
14882;BME280;7533;51.278;12.588;2023-11-25T06:49:17;99085.63;;;22.22;58.88
14882;BME280;7533;51.278;12.588;2023-11-25T06:54:20;99079.69;;;22.18;58.96
14882;BME280;7533;51.278;12.588;2023-11-25T06:59:26;99078.00;;;22.17;59.04
14882;BME280;7533;51.278;12.588;2023-11-25T07:09:32;99089.91;;;22.15;59.12
14882;BME280;7533;51.278;12.588;2023-11-25T07:14:36;99090.91;;;22.14;59.09
14882;BME280;7533;51.278;12.588;2023-11-25T07:19:39;99101.09;;;22.10;59.16
14882;BME280;7533;51.278;12.588;2023-11-25T07:24:44;99100.13;;;22.11;59.10
14882;BME280;7533;51.278;12.588;2023-11-25T07:29:49;99105.63;;;22.10;59.10
14882;BME280;7533;51.278;12.588;2023-11-25T07:34:52;99105.03;;;22.06;59.41
14882;BME280;7533;51.278;12.588;2023-11-25T07:39:55;99098.38;;;22.01;59.18
14882;BME280;7533;51.278;12.588;2023-11-25T07:44:59;99095.66;;;22.01;59.11
14882;BME280;7533;51.278;12.588;2023-11-25T07:50:03;99078.91;;;21.97;59.15
14882;BME280;7533;51.278;12.588;2023-11-25T07:55:07;99086.59;;;22.02;59.07
14882;BME280;7533;51.278;12.588;2023-11-25T08:00:12;99088.44;;;22.01;58.94
14882;BME280;7533;51.278;12.588;2023-11-25T08:05:18;99084.09;;;21.70;46.27
14882;BME280;7533;51.278;12.588;2023-11-25T08:10:26;99099.63;;;17.78;40.39
14882;BME280;7533;51.278;12.588;2023-11-25T08:15:37;99081.69;;;19.43;47.51
14882;BME280;7533;51.278;12.588;2023-11-25T08:20:40;99067.63;;;20.28;48.02
14882;BME280;7533;51.278;12.588;2023-11-25T08:25:42;99045.41;;;20.79;48.34
14882;BME280;7533;51.278;12.588;2023-11-25T08:30:47;99065.84;;;21.12;48.94
14882;BME280;7533;51.278;12.588;2023-11-25T08:35:50;99059.47;;;21.34;49.79
14882;BME280;7533;51.278;12.588;2023-11-25T08:40:53;99057.38;;;21.47;50.38
14882;BME280;7533;51.278;12.588;2023-11-25T08:45:57;99062.41;;;21.61;50.93
14882;BME280;7533;51.278;12.588;2023-11-25T08:51:01;99073.75;;;21.75;51.28
14882;BME280;7533;51.278;12.588;2023-11-25T08:56:09;99053.53;;;21.90;51.66
14882;BME280;7533;51.278;12.588;2023-11-25T09:01:14;99051.41;;;22.03;51.91
14882;BME280;7533;51.278;12.588;2023-11-25T09:06:17;99047.06;;;22.12;52.19
14882;BME280;7533;51.278;12.588;2023-11-25T09:11:20;99041.81;;;22.20;52.58
14882;BME280;7533;51.278;12.588;2023-11-25T09:16:25;99033.00;;;22.28;52.78
14882;BME280;7533;51.278;12.588;2023-11-25T09:21:29;99016.31;;;22.34;52.82
14882;BME280;7533;51.278;12.588;2023-11-25T09:26:32;99024.25;;;22.35;53.15
14882;BME280;7533;51.278;12.588;2023-11-25T09:31:37;99016.00;;;22.37;53.18
14882;BME280;7533;51.278;12.588;2023-11-25T09:36:40;99007.91;;;22.37;53.46
14882;BME280;7533;51.278;12.588;2023-11-25T09:41:44;99004.38;;;22.36;53.37
14882;BME280;7533;51.278;12.588;2023-11-25T09:46:49;98995.59;;;22.34;53.69
14882;BME280;7533;51.278;12.588;2023-11-25T09:51:54;98993.84;;;22.33;53.71
14882;BME280;7533;51.278;12.588;2023-11-25T09:57:03;98990.19;;;22.34;53.78
14882;BME280;7533;51.278;12.588;2023-11-25T10:02:09;98997.44;;;22.34;53.79
14882;BME280;7533;51.278;12.588;2023-11-25T10:07:13;98988.34;;;22.35;54.02
14882;BME280;7533;51.278;12.588;2023-11-25T10:12:18;98991.16;;;22.33;54.62
14882;BME280;7533;51.278;12.588;2023-11-25T10:17:23;98985.66;;;22.35;54.78
14882;BME280;7533;51.278;12.588;2023-11-25T10:22:26;98972.03;;;22.36;55.04
14882;BME280;7533;51.278;12.588;2023-11-25T10:27:29;98972.88;;;22.37;55.13
14882;BME280;7533;51.278;12.588;2023-11-25T10:32:34;98959.13;;;22.40;55.23
14882;BME280;7533;51.278;12.588;2023-11-25T10:37:38;98949.03;;;22.42;55.28
14882;BME280;7533;51.278;12.588;2023-11-25T10:42:42;98938.09;;;22.43;55.41
14882;BME280;7533;51.278;12.588;2023-11-25T10:47:47;98937.09;;;22.44;55.61
14882;BME280;7533;51.278;12.588;2023-11-25T10:52:51;98934.28;;;22.46;55.52
14882;BME280;7533;51.278;12.588;2023-11-25T10:57:59;98928.88;;;22.46;55.50
14882;BME280;7533;51.278;12.588;2023-11-25T11:03:08;98916.09;;;22.48;55.52
14882;BME280;7533;51.278;12.588;2023-11-25T11:08:16;98915.94;;;22.50;55.36
14882;BME280;7533;51.278;12.588;2023-11-25T11:13:25;98909.56;;;22.51;55.36
14882;BME280;7533;51.278;12.588;2023-11-25T11:18:32;98904.88;;;22.53;55.40
14882;BME280;7533;51.278;12.588;2023-11-25T11:23:38;98894.09;;;22.53;55.31
14882;BME280;7533;51.278;12.588;2023-11-25T11:28:44;98885.69;;;22.56;55.25
14882;BME280;7533;51.278;12.588;2023-11-25T11:33:50;98881.03;;;22.58;55.35
14882;BME280;7533;51.278;12.588;2023-11-25T11:38:54;98876.16;;;22.61;55.33
14882;BME280;7533;51.278;12.588;2023-11-25T11:44:01;98868.06;;;22.61;55.54
14882;BME280;7533;51.278;12.588;2023-11-25T11:49:07;98863.69;;;22.60;55.40
14882;BME280;7533;51.278;12.588;2023-11-25T11:54:23;98867.78;;;22.64;55.85
14882;BME280;7533;51.278;12.588;2023-11-25T11:59:56;98856.84;;;22.66;56.62
14882;BME280;7533;51.278;12.588;2023-11-25T12:05:01;98865.13;;;22.55;55.67
14882;BME280;7533;51.278;12.588;2023-11-25T12:10:06;98874.47;;;18.85;44.33
14882;BME280;7533;51.278;12.588;2023-11-25T12:15:09;98862.88;;;19.83;51.51
14882;BME280;7533;51.278;12.588;2023-11-25T12:20:15;98855.22;;;20.91;51.14
14882;BME280;7533;51.278;12.588;2023-11-25T12:25:18;98846.13;;;21.32;51.23
14882;BME280;7533;51.278;12.588;2023-11-25T12:30:21;98843.88;;;21.56;51.37
14882;BME280;7533;51.278;12.588;2023-11-25T12:35:25;98850.25;;;21.75;51.74
14882;BME280;7533;51.278;12.588;2023-11-25T12:40:28;98844.44;;;21.89;52.12
14882;BME280;7533;51.278;12.588;2023-11-25T12:45:33;98845.25;;;21.99;52.47
14882;BME280;7533;51.278;12.588;2023-11-25T12:50:58;98856.44;;;22.04;52.84
14882;BME280;7533;51.278;12.588;2023-11-25T12:56:03;98847.94;;;22.09;53.05
14882;BME280;7533;51.278;12.588;2023-11-25T13:01:06;98853.19;;;22.10;53.63
14882;BME280;7533;51.278;12.588;2023-11-25T13:06:12;98848.53;;;22.12;53.83
14882;BME280;7533;51.278;12.588;2023-11-25T13:11:15;98854.91;;;22.11;54.26
14882;BME280;7533;51.278;12.588;2023-11-25T13:16:20;98863.97;;;22.10;54.28
14882;BME280;7533;51.278;12.588;2023-11-25T13:21:25;98855.88;;;22.10;54.54
14882;BME280;7533;51.278;12.588;2023-11-25T13:26:28;98845.00;;;22.12;54.86
14882;BME280;7533;51.278;12.588;2023-11-25T13:31:31;98846.84;;;22.11;54.98
14882;BME280;7533;51.278;12.588;2023-11-25T13:36:35;98847.69;;;22.12;55.07
14882;BME280;7533;51.278;12.588;2023-11-25T13:41:39;98849.22;;;22.14;55.22
14882;BME280;7533;51.278;12.588;2023-11-25T13:46:42;98853.75;;;22.14;55.54
14882;BME280;7533;51.278;12.588;2023-11-25T13:51:46;98853.91;;;22.12;55.73
14882;BME280;7533;51.278;12.588;2023-11-25T13:56:50;98863.84;;;22.12;55.92
14882;BME280;7533;51.278;12.588;2023-11-25T14:01:52;98857.72;;;22.10;55.99
14882;BME280;7533;51.278;12.588;2023-11-25T14:06:58;98863.97;;;22.10;55.91
14882;BME280;7533;51.278;12.588;2023-11-25T14:12:02;98873.03;;;22.09;56.54
14882;BME280;7533;51.278;12.588;2023-11-25T14:17:05;98879.28;;;22.10;57.19
14882;BME280;7533;51.278;12.588;2023-11-25T14:22:14;98886.66;;;22.08;57.30
14882;BME280;7533;51.278;12.588;2023-11-25T14:27:18;98899.44;;;22.06;57.40
14882;BME280;7533;51.278;12.588;2023-11-25T14:32:21;98895.72;;;22.07;57.31
14882;BME280;7533;51.278;12.588;2023-11-25T14:37:26;98904.66;;;22.07;57.41
14882;BME280;7533;51.278;12.588;2023-11-25T14:42:30;98895.72;;;22.07;57.16
14882;BME280;7533;51.278;12.588;2023-11-25T14:47:36;98894.03;;;22.06;57.11
14882;BME280;7533;51.278;12.588;2023-11-25T14:52:40;98896.72;;;22.06;57.23
14882;BME280;7533;51.278;12.588;2023-11-25T14:57:43;98898.44;;;22.07;57.13
14882;BME280;7533;51.278;12.588;2023-11-25T15:02:47;98898.44;;;22.07;56.95
14882;BME280;7533;51.278;12.588;2023-11-25T15:07:52;98905.94;;;22.03;56.92
14882;BME280;7533;51.278;12.588;2023-11-25T15:12:55;98903.25;;;22.03;57.05
14882;BME280;7533;51.278;12.588;2023-11-25T15:17:58;98907.09;;;22.01;57.29
14882;BME280;7533;51.278;12.588;2023-11-25T15:23:02;98914.00;;;22.03;57.85
14882;BME280;7533;51.278;12.588;2023-11-25T15:28:06;98917.41;;;22.05;58.20
14882;BME280;7533;51.278;12.588;2023-11-25T15:33:09;98918.28;;;22.06;58.43
14882;BME280;7533;51.278;12.588;2023-11-25T15:38:14;98910.19;;;22.06;58.65
14882;BME280;7533;51.278;12.588;2023-11-25T15:43:17;98902.97;;;22.06;58.75
14882;BME280;7533;51.278;12.588;2023-11-25T15:48:20;98907.19;;;22.09;59.01
14882;BME280;7533;51.278;12.588;2023-11-25T15:53:24;98902.66;;;22.09;58.95
14882;BME280;7533;51.278;12.588;2023-11-25T15:58:27;98904.66;;;22.07;58.96
14882;BME280;7533;51.278;12.588;2023-11-25T16:03:33;98913.44;;;22.09;58.80
14882;BME280;7533;51.278;12.588;2023-11-25T16:08:37;98911.75;;;22.08;58.58
14882;BME280;7533;51.278;12.588;2023-11-25T16:13:41;98914.44;;;22.08;58.39
14882;BME280;7533;51.278;12.588;2023-11-25T16:18:44;98919.81;;;22.08;58.22
14882;BME280;7533;51.278;12.588;2023-11-25T16:23:49;98919.81;;;22.08;58.36
14882;BME280;7533;51.278;12.588;2023-11-25T16:28:52;98937.69;;;22.09;58.57
14882;BME280;7533;51.278;12.588;2023-11-25T16:33:55;98947.63;;;22.09;58.55
14882;BME280;7533;51.278;12.588;2023-11-25T16:39:00;98952.03;;;22.10;58.58
14882;BME280;7533;51.278;12.588;2023-11-25T16:44:04;98972.28;;;22.33;58.25
14882;BME280;7533;51.278;12.588;2023-11-25T16:49:07;98972.13;;;22.54;57.52
14882;BME280;7533;51.278;12.588;2023-11-25T16:54:13;98988.16;;;22.65;57.34
14882;BME280;7533;51.278;12.588;2023-11-25T16:59:17;98992.09;;;22.71;57.08
14882;BME280;7533;51.278;12.588;2023-11-25T17:04:20;99011.41;;;22.76;56.90
14882;BME280;7533;51.278;12.588;2023-11-25T17:09:25;99020.34;;;22.77;57.04
14882;BME280;7533;51.278;12.588;2023-11-25T17:14:29;99025.16;;;22.83;57.42
14882;BME280;7533;51.278;12.588;2023-11-25T17:19:32;99023.75;;;22.88;57.85
14882;BME280;7533;51.278;12.588;2023-11-25T17:24:36;99036.13;;;22.91;58.79
14882;BME280;7533;51.278;12.588;2023-11-25T17:29:40;99041.50;;;22.91;59.19
14882;BME280;7533;51.278;12.588;2023-11-25T17:34:43;99041.50;;;22.91;59.18
14882;BME280;7533;51.278;12.588;2023-11-25T17:39:47;99054.84;;;22.92;59.28
14882;BME280;7533;51.278;12.588;2023-11-25T17:44:50;99050.28;;;22.93;59.20
14882;BME280;7533;51.278;12.588;2023-11-25T17:49:53;99065.63;;;22.92;59.41
14882;BME280;7533;51.278;12.588;2023-11-25T17:54:57;99072.72;;;22.93;59.61
14882;BME280;7533;51.278;12.588;2023-11-25T18:00:00;99089.91;;;23.02;59.26
14882;BME280;7533;51.278;12.588;2023-11-25T18:05:05;99105.63;;;23.16;58.85
14882;BME280;7533;51.278;12.588;2023-11-25T18:10:11;99109.84;;;23.29;58.56
14882;BME280;7533;51.278;12.588;2023-11-25T18:15:15;99113.25;;;23.40;58.05
14882;BME280;7533;51.278;12.588;2023-11-25T18:20:18;99125.69;;;23.51;57.81
14882;BME280;7533;51.278;12.588;2023-11-25T18:25:23;99122.44;;;23.57;57.31
14882;BME280;7533;51.278;12.588;2023-11-25T18:30:26;99128.97;;;23.64;57.24
14882;BME280;7533;51.278;12.588;2023-11-25T18:35:29;99145.59;;;23.69;56.99
14882;BME280;7533;51.278;12.588;2023-11-25T18:40:33;99142.88;;;23.69;56.78
14882;BME280;7533;51.278;12.588;2023-11-25T18:45:37;99144.97;;;23.75;56.83
14882;BME280;7533;51.278;12.588;2023-11-25T18:50:40;99158.91;;;23.81;56.77
14882;BME280;7533;51.278;12.588;2023-11-25T18:55:44;99156.91;;;23.83;56.96
14882;BME280;7533;51.278;12.588;2023-11-25T19:00:49;99155.75;;;23.85;56.77
14882;BME280;7533;51.278;12.588;2023-11-25T19:05:53;99167.25;;;23.87;56.48
14882;BME280;7533;51.278;12.588;2023-11-25T19:10:57;99167.41;;;23.86;56.50
14882;BME280;7533;51.278;12.588;2023-11-25T19:16:00;99167.88;;;23.71;56.88
14882;BME280;7533;51.278;12.588;2023-11-25T19:21:05;99177.31;;;23.58;57.33
14882;BME280;7533;51.278;12.588;2023-11-25T19:26:09;99181.56;;;23.50;57.35
14882;BME280;7533;51.278;12.588;2023-11-25T19:31:12;99196.78;;;23.52;57.37
14882;BME280;7533;51.278;12.588;2023-11-25T19:36:15;99200.63;;;23.49;57.37
14882;BME280;7533;51.278;12.588;2023-11-25T19:41:19;99194.63;;;23.55;57.08
14882;BME280;7533;51.278;12.588;2023-11-25T19:46:22;99200.28;;;23.62;56.96
14882;BME280;7533;51.278;12.588;2023-11-25T19:51:26;99209.56;;;23.69;56.82
14882;BME280;7533;51.278;12.588;2023-11-25T19:56:30;99213.53;;;23.74;56.59
14882;BME280;7533;51.278;12.588;2023-11-25T20:01:36;99249.59;;;23.83;56.39
14882;BME280;7533;51.278;12.588;2023-11-25T20:06:41;99255.44;;;23.88;56.38
14882;BME280;7533;51.278;12.588;2023-11-25T20:11:46;99264.50;;;23.97;56.20
14882;BME280;7533;51.278;12.588;2023-11-25T20:16:49;99270.19;;;24.04;55.82
14882;BME280;7533;51.278;12.588;2023-11-25T20:21:52;99274.00;;;24.11;55.94
14882;BME280;7533;51.278;12.588;2023-11-25T20:26:56;99292.31;;;24.17;55.52
14882;BME280;7533;51.278;12.588;2023-11-25T20:31:59;99299.72;;;24.24;55.44
14882;BME280;7533;51.278;12.588;2023-11-25T20:37:04;99316.03;;;24.33;55.29
14882;BME280;7533;51.278;12.588;2023-11-25T20:42:08;99317.16;;;24.40;55.18
14882;BME280;7533;51.278;12.588;2023-11-25T20:47:11;99322.53;;;24.49;54.88
14882;BME280;7533;51.278;12.588;2023-11-25T20:52:14;99317.38;;;24.56;54.57
14882;BME280;7533;51.278;12.588;2023-11-25T20:57:19;99316.94;;;24.61;54.63
14882;BME280;7533;51.278;12.588;2023-11-25T21:02:22;99327.31;;;24.65;54.28
14882;BME280;7533;51.278;12.588;2023-11-25T21:07:25;99326.84;;;24.97;54.11
14882;BME280;7533;51.278;12.588;2023-11-25T21:12:30;99309.72;;;25.24;53.04
14882;BME280;7533;51.278;12.588;2023-11-25T21:17:34;99314.13;;;25.43;52.74
14882;BME280;7533;51.278;12.588;2023-11-25T21:22:37;99290.53;;;25.53;52.43
14882;BME280;7533;51.278;12.588;2023-11-25T21:27:42;99305.78;;;25.37;52.66
14882;BME280;7533;51.278;12.588;2023-11-25T21:32:46;99321.88;;;25.20;52.79
14882;BME280;7533;51.278;12.588;2023-11-25T21:37:49;99342.13;;;25.16;52.99
14882;BME280;7533;51.278;12.588;2023-11-25T21:42:54;99349.41;;;25.16;53.06
14882;BME280;7533;51.278;12.588;2023-11-25T21:47:57;99352.97;;;25.16;53.09
14882;BME280;7533;51.278;12.588;2023-11-25T21:53:00;99353.81;;;25.17;52.88
14882;BME280;7533;51.278;12.588;2023-11-25T21:58:05;99363.34;;;25.21;52.80
14882;BME280;7533;51.278;12.588;2023-11-25T22:03:08;99373.00;;;25.23;53.15
14882;BME280;7533;51.278;12.588;2023-11-25T22:08:13;99389.97;;;25.25;53.19
14882;BME280;7533;51.278;12.588;2023-11-25T22:13:17;99407.94;;;25.26;52.83
14882;BME280;7533;51.278;12.588;2023-11-25T22:18:20;99408.59;;;25.28;53.10
14882;BME280;7533;51.278;12.588;2023-11-25T22:23:23;99411.72;;;25.33;53.16
14882;BME280;7533;51.278;12.588;2023-11-25T22:28:28;99422.56;;;25.33;52.79
14882;BME280;7533;51.278;12.588;2023-11-25T22:33:31;99427.69;;;25.37;53.00
14882;BME280;7533;51.278;12.588;2023-11-25T22:38:34;99435.31;;;25.41;52.68
14882;BME280;7533;51.278;12.588;2023-11-25T22:43:38;99438.59;;;25.45;52.73
14882;BME280;7533;51.278;12.588;2023-11-25T22:48:41;99439.16;;;25.48;52.70
14882;BME280;7533;51.278;12.588;2023-11-25T22:53:44;99438.13;;;25.49;53.02
14882;BME280;7533;51.278;12.588;2023-11-25T22:58:49;99440.53;;;25.52;52.58
14882;BME280;7533;51.278;12.588;2023-11-25T23:03:52;99442.78;;;25.57;52.97
14882;BME280;7533;51.278;12.588;2023-11-25T23:08:57;99452.31;;;25.61;52.54
14882;BME280;7533;51.278;12.588;2023-11-25T23:14:01;99460.13;;;25.64;52.57
14882;BME280;7533;51.278;12.588;2023-11-25T23:19:06;99469.13;;;25.65;52.69
14882;BME280;7533;51.278;12.588;2023-11-25T23:24:09;99469.13;;;25.65;52.64
14882;BME280;7533;51.278;12.588;2023-11-25T23:29:13;99456.16;;;25.58;52.94
14882;BME280;7533;51.278;12.588;2023-11-25T23:34:17;99458.19;;;25.56;52.79
14882;BME280;7533;51.278;12.588;2023-11-25T23:39:21;99463.06;;;25.53;52.71
14882;BME280;7533;51.278;12.588;2023-11-25T23:44:25;99460.66;;;25.50;52.84
14882;BME280;7533;51.278;12.588;2023-11-25T23:49:28;99465.06;;;25.51;52.99
14882;BME280;7533;51.278;12.588;2023-11-25T23:54:30;99465.41;;;25.48;53.25
14882;BME280;7533;51.278;12.588;2023-11-25T23:59:36;99473.53;;;25.48;52.87
